createdAt,value
2022-09-28T00:03:58.222Z,121.52161
2022-09-28T00:08:59.951Z,109.5914
2022-09-28T00:14:01.614Z,103.58549
2022-09-28T00:19:03.279Z,81.5
2022-09-28T00:24:04.963Z,69.20325
2022-09-28T00:29:06.588Z,103.58549
2022-09-28T00:34:08.217Z,107.82979
2022-09-28T00:39:09.867Z,122.55072
2022-09-28T00:44:11.536Z,104.41667
2022-09-28T00:49:13.226Z,97.61596
2022-09-28T00:54:14.875Z,85.6092
2022-09-28T00:59:16.657Z,92.07692
2022-09-28T01:04:18.348Z,96.47525
2022-09-28T01:09:19.950Z,96.8536
2022-09-28T01:14:21.601Z,84.9611
2022-09-28T01:19:23.216Z,91.36842
2022-09-28T01:24:24.807Z,104.41667
2022-09-28T01:29:26.407Z,84.9611
2022-09-28T01:34:28.021Z,85.93548
2022-09-28T01:39:29.611Z,81.19376
2022-09-28T01:44:31.193Z,75.34328
2022-09-28T01:49:32.766Z,69.20325
2022-09-28T01:54:34.416Z,68.94929
2022-09-28T01:59:36.024Z,61.55725
2022-09-28T02:04:37.586Z,65.25984
2022-09-28T02:09:39.224Z,62.23417
2022-09-28T02:14:40.809Z,77.33333
2022-09-28T02:19:42.406Z,72.06653
2022-09-28T02:24:44.066Z,71.01031
2022-09-28T02:29:45.653Z,76.75862
2022-09-28T02:34:47.351Z,69.97137
2022-09-28T02:39:49.004Z,69.71429
2022-09-28T02:44:50.594Z,65.73913
2022-09-28T02:49:52.346Z,62.68979
2022-09-28T02:54:53.930Z,62.23417
2022-09-28T02:59:55.505Z,68.69636
2022-09-28T03:04:57.082Z,89.62648
2022-09-28T03:09:58.679Z,75.62393
2022-09-28T03:15:00.285Z,75.06383
2022-09-28T03:20:01.844Z,67.44689
2022-09-28T03:25:03.447Z,67.44689
2022-09-28T03:30:05.039Z,71.01031
2022-09-28T03:35:06.677Z,66.46521
2022-09-28T03:40:08.282Z,66.95409
2022-09-28T03:45:09.904Z,69.45825
2022-09-28T03:50:11.512Z,67.69478
2022-09-28T03:55:13.430Z,71.53623
2022-09-28T04:00:15.012Z,73.95781
2022-09-28T04:05:16.644Z,71.53623
2022-09-28T04:10:18.260Z,80.88889
2022-09-28T04:15:19.952Z,75.34328
2022-09-28T04:20:21.528Z,74.78556
2022-09-28T04:25:23.163Z,75.62393
2022-09-28T04:30:24.712Z,94.61125
2022-09-28T04:35:26.629Z,98.77387
2022-09-28T04:40:28.394Z,107.39523
2022-09-28T04:45:30.111Z,92.79227
2022-09-28T04:50:31.796Z,91.72182
2022-09-28T04:55:33.400Z,93.51456
2022-09-28T05:00:34.988Z,91.01671
2022-09-28T05:05:36.647Z,104
2022-09-28T05:10:38.303Z,90.66667
2022-09-28T05:15:39.943Z,79.98234
2022-09-28T05:20:41.555Z,75.90578
2022-09-28T05:25:43.130Z,84
2022-09-28T05:30:44.791Z,84.9611
2022-09-28T05:35:49.797Z,83.05192
2022-09-28T05:40:54.359Z,83.68254
2022-09-28T05:45:56.182Z,96.8536
2022-09-28T05:50:57.866Z,175.57895
2022-09-28T05:55:59.487Z,168
2022-09-28T06:01:01.172Z,156.41379
2022-09-28T06:06:02.900Z,167.18841
2022-09-28T06:11:04.491Z,147.97351
2022-09-28T06:16:06.089Z,167.18841
2022-09-28T06:21:07.680Z,124.64516
2022-09-28T06:26:09.309Z,119
2022-09-28T06:31:11.045Z,99.16373
2022-09-28T06:36:12.729Z,87.92523
2022-09-28T06:41:14.327Z,81.19376
2022-09-28T06:46:15.977Z,82.11659
2022-09-28T06:51:17.632Z,78.49782
2022-09-28T06:56:19.275Z,83.36652
2022-09-28T07:01:20.982Z,83.05192
2022-09-28T07:06:22.678Z,98.38596
2022-09-28T07:11:24.300Z,104
2022-09-28T07:16:30.362Z,105.25654
2022-09-28T07:21:37.004Z,100.34518
2022-09-28T07:26:38.604Z,102.35476
2022-09-28T07:31:40.253Z,121.52161
2022-09-28T07:36:41.859Z,102.76289
2022-09-28T07:41:43.494Z,127.8806
2022-09-28T07:46:45.184Z,132.3792
2022-09-28T07:51:46.823Z,114.63712
2022-09-28T07:56:48.436Z,127.33333
2022-09-28T08:01:50.029Z,108.70588
2022-09-28T08:06:51.679Z,102.76289
2022-09-28T08:11:53.281Z,105.25654
2022-09-28T08:16:54.882Z,117.03371
2022-09-28T08:21:56.551Z,98.77387
2022-09-28T08:26:58.158Z,94.98039
2022-09-28T08:32:01.584Z,127.8806
2022-09-28T08:37:03.711Z,137.10345
2022-09-28T08:42:05.289Z,152.81356
2022-09-28T08:47:06.948Z,146.63158
2022-09-28T08:52:08.559Z,129.54217
2022-09-28T08:57:10.162Z,132.3792
2022-09-28T09:02:11.791Z,126.24852
2022-09-28T09:07:13.555Z,114.16575
2022-09-28T09:12:15.131Z,122.03468
2022-09-28T09:17:16.749Z,128.98498
2022-09-28T09:22:18.434Z,131.23404
2022-09-28T09:27:20.096Z,152.10811
2022-09-28T09:32:21.677Z,109.5914
2022-09-28T09:37:23.261Z,110.48649
2022-09-28T09:42:24.842Z,101.94872
2022-09-28T09:47:26.423Z,106.53298
2022-09-28T09:52:28.227Z,110.93767
2022-09-28T09:57:29.903Z,99.16373
2022-09-28T10:02:31.562Z,97.61596
2022-09-28T10:07:33.261Z,92.07692
2022-09-28T10:12:34.867Z,92.79227
2022-09-28T10:17:36.488Z,90.66667
2022-09-28T10:22:38.086Z,86.92343
2022-09-28T10:27:39.725Z,80.28319
2022-09-28T10:32:41.315Z,75.34328
2022-09-28T10:37:42.890Z,75.34328
2022-09-28T10:42:44.532Z,73.14046
2022-09-28T10:47:46.126Z,73.95781
2022-09-28T10:52:47.695Z,72.60125
2022-09-28T10:57:49.345Z,69.71429
2022-09-28T11:02:51.003Z,68.69636
2022-09-28T11:07:52.697Z,69.71429
2022-09-28T11:12:54.286Z,72.60125
2022-09-28T11:17:55.865Z,79.98234
2022-09-28T11:22:57.486Z,77.62256
2022-09-28T11:27:59.064Z,77.91304
2022-09-28T11:33:00.638Z,86.26328
2022-09-28T11:38:02.205Z,82.42697
2022-09-28T11:48:05.609Z,73.14046
2022-09-28T11:53:07.219Z,72.60125
2022-09-28T11:58:08.897Z,72.60125
2022-09-28T12:03:10.577Z,73.14046
2022-09-28T12:08:12.315Z,72.87029
2022-09-28T12:13:13.917Z,77.04536
2022-09-28T12:18:15.615Z,84.9611
2022-09-28T12:23:17.371Z,79.38462
2022-09-28T12:28:18.996Z,79.98234
2022-09-28T12:33:20.573Z,80.28319
2022-09-28T12:38:22.202Z,82.11659
2022-09-28T12:43:23.799Z,79.08772
2022-09-28T12:48:25.388Z,82.11659
2022-09-28T12:53:27.012Z,83.36652
2022-09-28T12:58:28.616Z,80.58537
2022-09-28T13:03:30.204Z,74.50847
2022-09-28T13:08:31.808Z,75.62393
2022-09-28T13:13:33.530Z,75.06383
2022-09-28T13:18:35.141Z,75.62393
2022-09-28T13:23:36.764Z,71.53623
2022-09-28T13:28:38.362Z,69.71429
2022-09-28T13:33:39.977Z,69.97137
2022-09-28T13:38:41.623Z,69.97137
2022-09-28T13:43:43.222Z,69.45825
2022-09-28T13:48:44.854Z,71.53623
2022-09-28T13:53:46.460Z,70.74897
2022-09-28T13:58:48.059Z,69.45825
2022-09-28T14:03:49.675Z,69.71429
2022-09-28T14:08:51.416Z,68.44444
2022-09-28T14:13:53.033Z,69.45825
2022-09-28T14:18:54.640Z,71.01031
2022-09-28T14:23:59.113Z,69.97137
2022-09-28T14:29:01.812Z,69.20325
2022-09-28T14:34:03.435Z,68.94929
2022-09-28T14:39:05.030Z,68.44444
2022-09-28T14:44:06.620Z,68.44444
2022-09-28T14:49:08.419Z,68.44444
2022-09-28T14:54:10.047Z,67.94366
2022-09-28T14:59:11.768Z,69.97137
2022-09-28T15:04:13.617Z,71.01031
2022-09-28T15:09:15.431Z,73.14046
2022-09-28T15:14:17.191Z,75.62393
2022-09-28T15:19:18.811Z,81.19376
2022-09-28T15:24:20.449Z,94.61125
2022-09-28T15:29:22.078Z,122.55072
2022-09-28T15:34:23.690Z,144
2022-09-28T15:39:25.288Z,147.97351
2022-09-28T15:44:26.912Z,152.10811
2022-09-28T15:49:28.557Z,147.30033
2022-09-28T15:54:30.146Z,126.24852
2022-09-28T15:59:31.726Z,122.03468
2022-09-28T16:04:33.327Z,138.32177
2022-09-28T16:09:40.929Z,132.95706
2022-09-28T16:14:42.754Z,162.43972
2022-09-28T16:19:44.378Z,194.4065
2022-09-28T16:24:46.164Z,192.3871
2022-09-28T16:29:47.762Z,146.63158
2022-09-28T16:34:49.390Z,164.78853
2022-09-28T16:39:51.014Z,152.81356
2022-09-28T16:44:52.657Z,151.40741
2022-09-28T16:49:54.297Z,157.14879
2022-09-28T16:54:55.892Z,154.9589
2022-09-28T16:59:57.493Z,158.63415
2022-09-28T17:04:59.099Z,160.90141
2022-09-28T17:10:00.711Z,154.23891
2022-09-28T17:15:02.397Z,157.14879
2022-09-28T17:20:04.085Z,172.14815
2022-09-28T17:25:07.264Z,187.47826
2022-09-28T17:30:10.923Z,211.82609
2022-09-28T17:35:24.004Z,207.24786
2022-09-28T17:40:27.077Z,202.82353
2022-09-28T17:45:28.840Z,197.49794
2022-09-28T17:50:30.487Z,191.38956
2022-09-28T17:55:32.116Z,188.44444
2022-09-28T18:00:33.728Z,173.85075
2022-09-28T18:05:35.372Z,172.99628
2022-09-28T18:10:36.976Z,174.71161
2022-09-28T18:15:38.679Z,182.75969
2022-09-28T18:20:40.378Z,162.43972
2022-09-28T18:25:41.985Z,243.02913
2022-09-28T18:30:43.600Z,235.94313
2022-09-28T18:35:45.293Z,160.90141
2022-09-28T18:40:47.022Z,139.55556
2022-09-28T18:45:48.663Z,176.45283
2022-09-28T18:50:50.281Z,227.87097
2022-09-28T18:55:51.854Z,194.4065
2022-09-28T19:01:00.931Z,163.21708
2022-09-28T19:06:15.497Z,194.4065
2022-09-28T19:11:17.192Z,186.51969
2022-09-28T19:16:18.846Z,171.30627
2022-09-28T19:21:20.457Z,123.59184
2022-09-28T19:26:22.091Z,131.23404
2022-09-28T19:31:23.707Z,137.10345
2022-09-28T19:36:25.406Z,134.12346
2022-09-28T19:41:27.024Z,126.78932
2022-09-28T19:46:28.800Z,136.5
2022-09-28T19:51:30.413Z,150.71141
2022-09-28T19:56:32.039Z,150.71141
2022-09-28T20:01:33.696Z,154.9589
2022-09-28T20:06:35.364Z,121.52161
2022-09-28T20:11:37.047Z,117.03371
2022-09-28T20:16:38.672Z,106.53298
2022-09-28T20:21:40.321Z,106.53298
2022-09-28T20:26:41.890Z,117.52113
2022-09-28T20:31:43.531Z,122.55072
2022-09-28T20:36:45.168Z,125.17647
2022-09-28T20:41:46.768Z,140.80511
2022-09-28T20:46:48.355Z,148.65116
2022-09-28T20:51:49.963Z,118.0113
2022-09-28T20:56:51.529Z,127.33333
2022-09-28T21:01:53.137Z,121.01149
2022-09-28T21:06:54.754Z,109.14745
2022-09-28T21:11:56.364Z,109.5914
2022-09-28T21:16:57.933Z,118.0113
2022-09-28T21:21:59.561Z,100.743
2022-09-28T21:27:01.176Z,117.03371
2022-09-28T21:32:02.769Z,112.30601
2022-09-28T21:37:04.389Z,110.48649
2022-09-28T21:42:05.996Z,122.55072
2022-09-28T21:47:07.638Z,157.88889
2022-09-28T21:52:09.252Z,145.96721
2022-09-28T21:57:10.852Z,146.63158
2022-09-28T22:02:12.473Z,168
2022-09-28T22:07:14.082Z,114.16575
2022-09-28T22:12:15.694Z,122.55072
2022-09-28T22:17:17.294Z,108.26667
2022-09-28T22:22:18.897Z,142.07074
2022-09-28T22:27:20.666Z,155.68385
2022-09-28T22:32:22.281Z,141.4359
2022-09-28T22:37:23.883Z,172.99628
2022-09-28T22:42:25.525Z,178.22053
2022-09-28T22:47:27.142Z,143.35275
2022-09-28T22:52:28.752Z,145.96721
2022-09-28T22:57:30.363Z,119
2022-09-28T23:02:32.013Z,127.33333
2022-09-28T23:07:33.621Z,120
2022-09-28T23:12:35.232Z,123.06977
2022-09-28T23:17:36.881Z,175.57895
2022-09-28T23:22:38.592Z,165.58273
2022-09-28T23:27:40.199Z,138.32177
2022-09-28T23:32:41.855Z,125.17647
2022-09-28T23:37:43.460Z,122.55072
2022-09-28T23:42:45.053Z,121.52161
2022-09-28T23:47:46.645Z,142.70968
2022-09-28T23:52:48.269Z,100.743
2022-09-28T23:57:49.897Z,111.3913
